PWSweather.com
Personal Weather Stations
Station Observations
IBRABANT12
Leuven, BlandenBE 3052

LeuvenBlandenBE 3052

Lat: 50.8252218, Lon: 4.709682799999996

Elevation: 193

Station Type: Davis Vantage Vue

http://www.weerstationblanden.be

Latest ConditionsUpdated 7:20:18 AM GMT+01:01 Wednesday, Oct 22, 2014
Currently Today's Max Today's Min Today's Average
Temperature 46.7°F8.2°C 48.1°F8.9°C 44.1°F6.7°C 46.3°F7.9°C
Dew Point 40.2°F4.6°C 41.9°F5.5°C 40.1°F4.5°C 40.9°F4.9°C
Winds 6.7 mph WSW10.8 kmh WSW 11.7 mph WSW18.8 kmh WSW - 6.1 mph 9.8 kmh
Wind Gusts 11.0 mph17.7 kmh 17.0 mph27.4 kmh - -
Humidity 78% 92% 74% 82%
Pressure 30.03 in1016.9 mb 30.03 in1016.9 mb 29.89 in1012.2 mb -
Precipitation - 0.04 in1.0 mm - -
Hour Temp Dew Point Humidity Winds Wind Gusts Pressure Precip Precip Rate Daily Precip Total
07:20 AM 46.7°F8.2°C 40.2°F4.6°C 78% 6.7 mph WSW10.8 kmh WSW 11.0 mph17.7 kmh 30.03 in1016.9 mb 0.00 in0.0 mm 0.00 in/hr0.0 mm/hr 0.04 in1.0 mm
07:10 AM 46.6°F8.1°C 40.1°F4.5°C 78% 6.7 mph WNW10.8 kmh WNW 11.0 mph17.7 kmh 30.03 in1016.9 mb 0.00 in0.0 mm 0.00 in/hr0.0 mm/hr 0.04 in1.0 mm
07:00 AM 46.5°F8.1°C 40.3°F4.6°C 79% 6.6 mph W10.6 kmh W 6.0 mph9.7 kmh 30.02 in1016.6 mb 0.00 in0.0 mm 0.00 in/hr0.0 mm/hr 0.04 in1.0 mm
06:50 AM 46.1°F7.8°C 40.2°F4.6°C 80% 6.1 mph W9.8 kmh W 9.0 mph14.5 kmh 30.02 in1016.6 mb 0.00 in0.0 mm 0.00 in/hr0.0 mm/hr 0.04 in1.0 mm
06:40 AM 45.9°F7.7°C 40.4°F4.7°C 81% 3.8 mph WSW6.1 kmh WSW 7.0 mph11.3 kmh 30.02 in1016.6 mb 0.00 in0.0 mm 0.00 in/hr0.0 mm/hr 0.04 in1.0 mm
06:30 AM 46.0°F7.8°C 40.5°F4.7°C 81% 6.0 mph W9.7 kmh W 11.0 mph17.7 kmh 30.01 in1016.3 mb 0.00 in0.0 mm 0.00 in/hr0.0 mm/hr 0.04 in1.0 mm
06:20 AM 45.9°F7.7°C 40.4°F4.7°C 81% 4.8 mph WNW7.7 kmh WNW 8.0 mph12.9 kmh 30.01 in1016.3 mb 0.00 in0.0 mm 0.00 in/hr0.0 mm/hr 0.04 in1.0 mm
06:10 AM 45.7°F7.6°C 40.8°F4.9°C 83% 4.4 mph WNW7.1 kmh WNW 8.0 mph12.9 kmh 30.01 in1016.3 mb 0.00 in0.0 mm 0.00 in/hr0.0 mm/hr 0.04 in1.0 mm
06:00 AM 45.5°F7.5°C 41.3°F5.2°C 85% 4.6 mph NW7.4 kmh NW 7.0 mph11.3 kmh 30.01 in1016.3 mb 0.00 in0.0 mm 0.00 in/hr0.0 mm/hr 0.04 in1.0 mm
05:50 AM 45.1°F7.3°C 41.5°F5.3°C 87% 5.1 mph W8.2 kmh W 6.0 mph9.7 kmh 30.01 in1016.3 mb 0.00 in0.0 mm 0.00 in/hr0.0 mm/hr 0.04 in1.0 mm
05:40 AM 44.8°F7.1°C 41.5°F5.3°C 88% 4.2 mph WSW6.8 kmh WSW 8.0 mph12.9 kmh 30.00 in1015.9 mb 0.01 in0.3 mm 0.06 in/hr1.5 mm/hr 0.04 in1.0 mm
05:30 AM 44.8°F7.1°C 41.8°F5.4°C 89% 3.4 mph WSW5.5 kmh WSW 5.0 mph8.0 kmh 30.00 in1015.9 mb 0.00 in0.0 mm 0.00 in/hr0.0 mm/hr 0.03 in0.8 mm
05:20 AM 45.1°F7.3°C 41.7°F5.4°C 88% 2.8 mph WNW4.5 kmh WNW 3.0 mph4.8 kmh 30.00 in1015.9 mb 0.00 in0.0 mm 0.00 in/hr0.0 mm/hr 0.03 in0.8 mm
05:10 AM 45.8°F7.7°C 41.2°F5.1°C 84% 9.9 mph NW15.9 kmh NW 14.0 mph22.5 kmh 30.00 in1015.9 mb 0.01 in0.3 mm 0.06 in/hr1.5 mm/hr 0.03 in0.8 mm
05:00 AM 46.0°F7.8°C 41.1°F5.1°C 83% 6.4 mph NW10.3 kmh NW 10.0 mph16.1 kmh 29.99 in1015.6 mb 0.00 in0.0 mm 0.00 in/hr0.0 mm/hr 0.02 in0.5 mm
04:50 AM 45.6°F7.6°C 41.4°F5.2°C 85% 7.3 mph W11.7 kmh W 10.0 mph16.1 kmh 29.99 in1015.6 mb 0.01 in0.3 mm 0.06 in/hr1.5 mm/hr 0.02 in0.5 mm
04:40 AM 44.6°F7.0°C 41.9°F5.5°C 90% 3.9 mph W6.3 kmh W 8.0 mph12.9 kmh 29.99 in1015.6 mb 0.00 in0.0 mm 0.00 in/hr0.0 mm/hr 0.02 in0.5 mm
04:30 AM 44.1°F6.7°C 41.9°F5.5°C 92% 2.2 mph SW3.5 kmh SW 3.0 mph4.8 kmh 29.99 in1015.6 mb 0.00 in0.0 mm 0.00 in/hr0.0 mm/hr 0.02 in0.5 mm
04:20 AM 44.2°F6.8°C 41.7°F5.4°C 91% 0.4 mph NW0.6 kmh NW 1.0 mph1.6 kmh 29.99 in1015.6 mb 0.00 in0.0 mm 0.00 in/hr0.0 mm/hr 0.02 in0.5 mm
04:10 AM 44.3°F6.8°C 41.8°F5.4°C 91% 1.0 mph NNW1.6 kmh NNW 1.0 mph1.6 kmh 29.99 in1015.6 mb 0.00 in0.0 mm 0.00 in/hr0.0 mm/hr 0.02 in0.5 mm
04:00 AM 44.3°F6.8°C 41.6°F5.3°C 90% 2.7 mph W4.3 kmh W 5.0 mph8.0 kmh 29.98 in1015.2 mb 0.00 in0.0 mm 0.00 in/hr0.0 mm/hr 0.02 in0.5 mm
03:50 AM 44.7°F7.1°C 41.7°F5.4°C 89% 4.3 mph WNW6.9 kmh WNW 8.0 mph12.9 kmh 29.98 in1015.2 mb 0.01 in0.3 mm 0.06 in/hr1.5 mm/hr 0.02 in0.5 mm
03:40 AM 45.7°F7.6°C 41.8°F5.4°C 86% 3.4 mph NE5.5 kmh NE 5.0 mph8.0 kmh 29.98 in1015.2 mb 0.00 in0.0 mm 0.00 in/hr0.0 mm/hr 0.01 in0.3 mm
03:30 AM 45.9°F7.7°C 41.6°F5.3°C 85% 3.8 mph WNW6.1 kmh WNW 6.0 mph9.7 kmh 29.98 in1015.2 mb 0.00 in0.0 mm 0.00 in/hr0.0 mm/hr 0.01 in0.3 mm
03:20 AM 46.4°F8.0°C 41.5°F5.3°C 83% 6.5 mph N10.5 kmh N 9.0 mph14.5 kmh 29.98 in1015.2 mb 0.01 in0.3 mm 0.06 in/hr1.5 mm/hr 0.01 in0.3 mm
03:10 AM 47.4°F8.6°C 40.6°F4.8°C 77% 7.6 mph SW12.2 kmh SW 10.0 mph16.1 kmh 29.98 in1015.2 mb 0.00 in0.0 mm 0.00 in/hr0.0 mm/hr 0.00 in0.0 mm
03:00 AM 47.2°F8.4°C 40.4°F4.7°C 77% 4.8 mph NW7.7 kmh NW 8.0 mph12.9 kmh 29.97 in1014.9 mb 0.00 in0.0 mm 0.00 in/hr0.0 mm/hr 0.00 in0.0 mm
02:50 AM 47.3°F8.5°C 40.4°F4.7°C 77% 7.5 mph WSW12.1 kmh WSW 14.0 mph22.5 kmh 29.96 in1014.6 mb 0.00 in0.0 mm 0.00 in/hr0.0 mm/hr 0.00 in0.0 mm
02:40 AM 47.3°F8.5°C 40.5°F4.7°C 77% 10.2 mph WNW16.4 kmh WNW 13.0 mph20.9 kmh 29.96 in1014.6 mb 0.00 in0.0 mm 0.00 in/hr0.0 mm/hr 0.00 in0.0 mm
02:30 AM 47.4°F8.6°C 40.6°F4.8°C 77% 7.8 mph WSW12.6 kmh WSW 13.0 mph20.9 kmh 29.96 in1014.6 mb 0.00 in0.0 mm 0.00 in/hr0.0 mm/hr 0.00 in0.0 mm
02:20 AM 47.2°F8.4°C 40.7°F4.8°C 78% 5.6 mph WSW9.0 kmh WSW 10.0 mph16.1 kmh 29.96 in1014.6 mb 0.00 in0.0 mm 0.00 in/hr0.0 mm/hr 0.00 in0.0 mm
02:10 AM 47.2°F8.4°C 40.7°F4.8°C 78% 8.1 mph WSW13.0 kmh WSW 11.0 mph17.7 kmh 29.96 in1014.6 mb 0.00 in0.0 mm 0.00 in/hr0.0 mm/hr 0.00 in0.0 mm
02:00 AM 47.0°F8.3°C 40.9°F4.9°C 79% 11.7 mph WSW18.8 kmh WSW 17.0 mph27.4 kmh 29.95 in1014.2 mb 0.00 in0.0 mm 0.00 in/hr0.0 mm/hr 0.00 in0.0 mm
01:50 AM 47.0°F8.3°C 40.8°F4.9°C 79% 5.4 mph SW8.7 kmh SW 9.0 mph14.5 kmh 29.95 in1014.2 mb 0.00 in0.0 mm 0.00 in/hr0.0 mm/hr 0.00 in0.0 mm
01:40 AM 46.9°F8.3°C 40.7°F4.8°C 79% 6.2 mph WSW10.0 kmh WSW 9.0 mph14.5 kmh 29.94 in1013.9 mb 0.00 in0.0 mm 0.00 in/hr0.0 mm/hr 0.00 in0.0 mm
01:30 AM 46.9°F8.3°C 40.7°F4.8°C 79% 6.0 mph SW9.7 kmh SW 13.0 mph20.9 kmh 29.93 in1013.5 mb 0.00 in0.0 mm 0.00 in/hr0.0 mm/hr 0.00 in0.0 mm
01:20 AM 47.1°F8.4°C 40.6°F4.8°C 78% 7.1 mph SW11.4 kmh SW 13.0 mph20.9 kmh 29.93 in1013.5 mb 0.00 in0.0 mm 0.00 in/hr0.0 mm/hr 0.00 in0.0 mm
01:10 AM 47.3°F8.5°C 40.8°F4.9°C 78% 8.3 mph W13.4 kmh W 10.0 mph16.1 kmh 29.93 in1013.5 mb 0.00 in0.0 mm 0.00 in/hr0.0 mm/hr 0.00 in0.0 mm
01:00 AM 47.4°F8.6°C 40.6°F4.8°C 77% 9.5 mph W15.3 kmh W 12.0 mph19.3 kmh 29.92 in1013.2 mb 0.00 in0.0 mm 0.00 in/hr0.0 mm/hr 0.00 in0.0 mm
12:50 AM 47.6°F8.7°C 40.4°F4.7°C 76% 7.3 mph WSW11.7 kmh WSW 10.0 mph16.1 kmh 29.92 in1013.2 mb 0.00 in0.0 mm 0.00 in/hr0.0 mm/hr 0.00 in0.0 mm
12:40 AM 47.7°F8.7°C 40.5°F4.7°C 76% 11.5 mph NW18.5 kmh NW 17.0 mph27.4 kmh 29.91 in1012.9 mb 0.00 in0.0 mm 0.00 in/hr0.0 mm/hr 0.00 in0.0 mm
12:30 AM 47.9°F8.8°C 40.4°F4.7°C 75% 8.4 mph SSW13.5 kmh SSW 11.0 mph17.7 kmh 29.91 in1012.9 mb 0.00 in0.0 mm 0.00 in/hr0.0 mm/hr 0.00 in0.0 mm
12:20 AM 48.0°F8.9°C 40.5°F4.7°C 75% 7.9 mph WSW12.7 kmh WSW 10.0 mph16.1 kmh 29.90 in1012.5 mb 0.00 in0.0 mm 0.00 in/hr0.0 mm/hr 0.00 in0.0 mm
12:10 AM 48.1°F8.9°C 40.6°F4.8°C 75% 7.7 mph WSW12.4 kmh WSW 13.0 mph20.9 kmh 29.90 in1012.5 mb 0.00 in0.0 mm 0.00 in/hr0.0 mm/hr 0.00 in0.0 mm
12:00 AM 48.1°F8.9°C 40.2°F4.6°C 74% 7.5 mph W12.1 kmh W 13.0 mph20.9 kmh 29.89 in1012.2 mb 0.00 in0.0 mm 0.00 in/hr0.0 mm/hr 0.00 in0.0 mm